createdAt,value
2022-10-28T00:00:23.753Z,45.30
2022-10-28T00:02:52.192Z,47.88
2022-10-28T00:05:19.521Z,46.13
2022-10-28T00:07:46.651Z,45.55
2022-10-28T00:10:13.781Z,45.35
2022-10-28T00:12:41.053Z,45.67
2022-10-28T00:15:08.950Z,46.13
2022-10-28T00:17:36.118Z,44.65
2022-10-28T00:20:04.081Z,48.20
2022-10-28T00:25:12.691Z,47.42
2022-10-28T00:27:39.687Z,48.97
2022-10-28T00:30:07.500Z,47.25
2022-10-28T00:32:34.907Z,47.17
2022-10-28T00:35:02.065Z,50.67
2022-10-28T00:37:29.357Z,47.78
2022-10-28T00:39:57.337Z,46.55
2022-10-28T00:42:24.649Z,48.30
2022-10-28T00:45:01.621Z,49.00
2022-10-28T00:47:52.510Z,48.95
2022-10-28T00:50:43.811Z,49.72
2022-10-28T00:53:26.994Z,49.10
2022-10-28T00:55:54.480Z,47.95
2022-10-28T00:58:23.214Z,48.17
2022-10-28T01:00:50.419Z,49.75
2022-10-28T01:03:17.639Z,45.63
2022-10-28T01:05:47.592Z,43.75
2022-10-28T01:08:15.145Z,43.00
2022-10-28T01:11:11.560Z,43.00
2022-10-28T01:14:11.414Z,41.67
2022-10-28T01:16:48.302Z,42.08
2022-10-28T01:19:43.235Z,41.55
2022-10-28T01:22:16.477Z,42.72
2022-10-28T01:24:55.409Z,42.40
2022-10-28T01:27:47.653Z,41.13
2022-10-28T01:30:17.394Z,44.85
2022-10-28T01:33:05.386Z,43.15
2022-10-28T01:35:48.706Z,41.78
2022-10-28T01:38:33.292Z,40.00
2022-10-28T01:41:26.630Z,39.63
2022-10-28T01:44:27.208Z,33.70
2022-10-28T01:47:06.408Z,33.50
2022-10-28T01:49:42.475Z,34.40
2022-10-28T01:52:15.752Z,36.28
2022-10-28T01:54:46.738Z,37.92
2022-10-28T01:57:15.700Z,39.17
2022-10-28T01:59:43.545Z,40.47
2022-10-28T02:02:10.988Z,40.05
2022-10-28T02:04:38.226Z,40.80
2022-10-28T02:07:06.024Z,41.38
2022-10-28T02:09:36.384Z,41.53
2022-10-28T02:12:38.844Z,48.20
2022-10-28T02:15:33.351Z,51.08
2022-10-28T02:18:45.245Z,53.00
2022-10-28T02:21:19.851Z,53.75
2022-10-28T02:24:04.176Z,53.40
2022-10-28T02:26:43.246Z,49.60
2022-10-28T02:29:56.997Z,45.67
2022-10-28T02:32:26.082Z,45.38
2022-10-28T02:34:55.154Z,44.75
2022-10-28T02:37:26.960Z,36.08
2022-10-28T02:39:57.101Z,39.80
2022-10-28T02:42:35.147Z,44.70
2022-10-28T02:45:14.133Z,39.13
2022-10-28T02:47:45.345Z,42.15
2022-10-28T02:50:17.707Z,39.42
2022-10-28T02:52:48.250Z,44.28
2022-10-28T02:55:15.320Z,44.80
2022-10-28T02:57:44.819Z,45.45
2022-10-28T03:00:16.983Z,46.97
2022-10-28T03:02:44.331Z,44.83
2022-10-28T03:05:11.750Z,40.75
2022-10-28T03:07:38.779Z,38.53
2022-10-28T03:10:06.824Z,37.13
2022-10-28T03:12:34.070Z,36.72
2022-10-28T03:15:01.913Z,35.17
2022-10-28T03:17:29.149Z,33.00
2022-10-28T03:19:56.035Z,33.47
2022-10-28T03:22:23.179Z,34.42
2022-10-28T03:24:50.495Z,32.55
2022-10-28T03:27:17.656Z,31.17
2022-10-28T03:29:45.982Z,31.08
2022-10-28T03:32:13.771Z,30.67
2022-10-28T03:34:40.946Z,28.38
2022-10-28T03:37:08.029Z,28.88
2022-10-28T03:39:35.681Z,30.20
2022-10-28T03:42:03.136Z,31.00
2022-10-28T03:44:30.512Z,32.65
2022-10-28T03:46:57.376Z,33.70
2022-10-28T03:49:24.577Z,37.30
2022-10-28T03:51:51.816Z,34.72
2022-10-28T03:54:19.035Z,37.08
2022-10-28T03:56:46.324Z,31.08
2022-10-28T03:59:16.377Z,30.90
2022-10-28T04:01:46.423Z,34.80
2022-10-28T04:04:13.826Z,32.20
2022-10-28T04:06:41.187Z,35.40
2022-10-28T04:09:08.831Z,35.03
2022-10-28T04:11:36.275Z,40.30
2022-10-28T04:14:03.479Z,39.15
2022-10-28T04:16:30.719Z,36.45
2022-10-28T04:18:58.242Z,35.80
2022-10-28T04:21:25.643Z,38.78
2022-10-28T04:23:52.838Z,39.78
2022-10-28T04:26:19.884Z,39.05
2022-10-28T04:28:46.895Z,41.15
2022-10-28T04:31:13.954Z,41.22
2022-10-28T04:33:41.435Z,36.72
2022-10-28T04:36:09.035Z,40.10
2022-10-28T04:38:35.940Z,41.78
2022-10-28T04:41:03.050Z,44.10
2022-10-28T04:43:30.279Z,44.20
2022-10-28T04:45:57.535Z,46.38
2022-10-28T04:48:24.528Z,45.25
2022-10-28T04:50:52.259Z,47.40
2022-10-28T04:53:19.685Z,51.40
2022-10-28T04:55:46.686Z,54.13
2022-10-28T04:58:14.111Z,56.38
2022-10-28T05:00:41.556Z,54.88
2022-10-28T05:03:08.699Z,56.15
2022-10-28T05:05:36.023Z,55.63
2022-10-28T05:08:03.340Z,52.13
2022-10-28T05:10:31.417Z,51.53
2022-10-28T05:12:59.100Z,51.58
2022-10-28T05:15:26.685Z,51.92
2022-10-28T05:17:54.295Z,49.78
2022-10-28T05:20:23.007Z,50.55
2022-10-28T05:22:53.748Z,50.28
2022-10-28T05:25:22.539Z,52.22
2022-10-28T05:27:50.177Z,53.00
2022-10-28T05:30:17.751Z,52.25
2022-10-28T05:32:45.210Z,52.85
2022-10-28T05:35:12.549Z,50.85
2022-10-28T05:37:40.438Z,48.72
2022-10-28T05:40:09.306Z,49.78
2022-10-28T05:42:43.553Z,48.63
2022-10-28T05:45:12.030Z,46.35
2022-10-28T05:47:49.097Z,48.97
2022-10-28T05:50:17.861Z,46.30
2022-10-28T05:52:52.453Z,45.80
2022-10-28T05:55:20.701Z,45.97
2022-10-28T05:57:49.277Z,46.50
2022-10-28T06:00:19.103Z,43.80
2022-10-28T06:02:46.679Z,42.70
2022-10-28T06:05:14.360Z,41.83
2022-10-28T06:07:41.861Z,41.45
2022-10-28T06:10:10.848Z,41.13
2022-10-28T06:12:37.401Z,42.95
2022-10-28T06:15:05.349Z,42.05
2022-10-28T06:17:32.748Z,41.95
2022-10-28T06:20:00.128Z,42.10
2022-10-28T06:22:27.551Z,43.10
2022-10-28T06:24:55.127Z,41.15
2022-10-28T06:27:22.430Z,43.28
2022-10-28T06:29:49.641Z,40.90
2022-10-28T06:32:17.216Z,43.38
2022-10-28T06:34:44.749Z,43.35
2022-10-28T06:37:13.088Z,43.00
2022-10-28T06:39:42.046Z,41.10
2022-10-28T06:42:09.403Z,41.45
2022-10-28T06:44:36.855Z,42.72
2022-10-28T06:47:05.572Z,40.55
2022-10-28T06:49:32.693Z,40.63
2022-10-28T06:52:11.377Z,38.72
2022-10-28T06:54:38.336Z,39.97
2022-10-28T06:57:05.265Z,38.78
2022-10-28T06:59:32.316Z,39.53
2022-10-28T07:01:59.480Z,38.95
2022-10-28T07:04:26.498Z,39.58
2022-10-28T07:06:59.614Z,37.83
2022-10-28T07:09:26.709Z,39.58
2022-10-28T07:11:55.294Z,34.67
2022-10-28T07:14:23.128Z,34.92
2022-10-28T07:16:50.145Z,33.00
2022-10-28T07:19:21.658Z,32.30
2022-10-28T07:26:31.552Z,31.42
2022-10-28T07:29:45.653Z,29.17
2022-10-28T07:32:14.253Z,32.17
2022-10-28T07:34:41.506Z,30.52
2022-10-28T07:37:11.386Z,30.63
2022-10-28T07:39:38.812Z,30.08
2022-10-28T07:42:06.331Z,32.53
2022-10-28T07:44:33.851Z,30.20
2022-10-28T07:50:47.249Z,27.45
2022-10-28T07:53:36.080Z,25.48
2022-10-28T07:56:17.284Z,24.92
2022-10-28T07:58:48.157Z,20.55
2022-10-28T08:01:34.661Z,19.08
2022-10-28T08:08:31.811Z,16.17
2022-10-28T08:11:38.516Z,14.40
2022-10-28T08:14:23.156Z,14.48
2022-10-28T08:17:13.561Z,15.18
2022-10-28T08:20:21.670Z,15.85
2022-10-28T08:22:49.875Z,13.85
2022-10-28T08:25:16.763Z,12.88
2022-10-28T08:27:43.645Z,13.00
2022-10-28T08:30:11.187Z,11.88
2022-10-28T08:32:38.062Z,13.00
2022-10-28T08:35:05.309Z,14.00
2022-10-28T08:37:32.121Z,12.95
2022-10-28T08:39:59.031Z,14.82
2022-10-28T08:42:37.985Z,14.63
2022-10-28T08:45:23.907Z,13.27
2022-10-28T08:48:24.900Z,14.40
2022-10-28T08:51:32.622Z,14.63
2022-10-28T08:54:04.342Z,15.65
2022-10-28T08:56:37.869Z,14.63
2022-10-28T08:59:06.596Z,15.95
2022-10-28T09:01:42.904Z,15.27
2022-10-28T09:04:27.349Z,16.30
2022-10-28T09:06:54.365Z,16.27
2022-10-28T09:09:22.457Z,15.40
2022-10-28T09:12:11.976Z,15.90
2022-10-28T09:14:53.971Z,16.65
2022-10-28T09:17:42.554Z,16.27
2022-10-28T09:20:16.054Z,18.10
2022-10-28T09:23:00.280Z,20.80
2022-10-28T09:26:01.917Z,21.95
2022-10-28T09:29:12.895Z,21.67
2022-10-28T09:32:37.695Z,23.10
2022-10-28T09:35:24.040Z,23.23
2022-10-28T09:38:28.489Z,22.48
2022-10-28T09:41:11.310Z,90.40
2022-10-28T09:43:48.751Z,24.65
2022-10-28T09:46:24.493Z,22.10
2022-10-28T09:49:24.236Z,22.30
2022-10-28T09:52:29.952Z,24.70
2022-10-28T09:55:21.141Z,25.35
2022-10-28T09:57:51.138Z,25.30
2022-10-28T10:00:29.313Z,25.80
2022-10-28T10:03:05.696Z,24.90
2022-10-28T10:05:39.954Z,24.83
2022-10-28T10:08:14.700Z,25.17
2022-10-28T10:11:01.612Z,25.70
2022-10-28T10:13:30.900Z,25.05
2022-10-28T10:16:05.517Z,26.33
2022-10-28T10:18:33.183Z,27.60
2022-10-28T10:21:16.356Z,29.55
2022-10-28T10:24:12.114Z,27.85
2022-10-28T10:26:49.228Z,31.77
2022-10-28T10:29:22.947Z,30.02
2022-10-28T10:32:26.241Z,29.33
2022-10-28T10:35:23.057Z,31.27
2022-10-28T10:41:05.544Z,31.33
2022-10-28T10:43:34.393Z,29.85
2022-10-28T10:46:08.474Z,29.48
2022-10-28T10:49:12.302Z,31.95
2022-10-28T10:51:53.627Z,29.63
2022-10-28T10:54:20.764Z,27.90
2022-10-28T10:56:48.091Z,28.85
2022-10-28T10:59:34.998Z,29.33
2022-10-28T11:02:01.873Z,28.10
2022-10-28T11:04:37.132Z,27.23
2022-10-28T11:07:04.541Z,26.45
2022-10-28T11:09:39.930Z,25.23
2022-10-28T11:12:41.408Z,26.38
2022-10-28T11:15:30.996Z,24.65
2022-10-28T11:18:20.678Z,24.00
2022-10-28T11:21:11.280Z,24.60
2022-10-28T11:24:06.508Z,24.60
2022-10-28T11:26:39.773Z,24.95
2022-10-28T11:31:53.368Z,24.85
2022-10-28T11:35:00.164Z,24.15
2022-10-28T11:38:10.783Z,25.45
2022-10-28T11:41:36.726Z,26.02
2022-10-28T11:51:08.389Z,24.17
2022-10-28T11:53:56.639Z,23.20
2022-10-28T11:56:40.088Z,23.45
2022-10-28T11:59:51.154Z,22.88
2022-10-28T12:03:22.304Z,23.50
2022-10-28T12:06:40.420Z,22.70
2022-10-28T12:09:16.596Z,23.60
2022-10-28T12:12:30.107Z,24.00
2022-10-28T12:15:17.031Z,24.70
2022-10-28T12:18:06.192Z,27.27
2022-10-28T12:20:40.043Z,26.60
2022-10-28T12:23:18.617Z,23.63
2022-10-28T12:25:49.188Z,24.90
2022-10-28T12:29:08.835Z,26.60
2022-10-28T12:31:44.635Z,26.63
2022-10-28T12:34:18.772Z,26.25
2022-10-28T12:37:10.601Z,25.20
2022-10-28T12:41:01.823Z,24.35
2022-10-28T12:44:08.838Z,23.35
2022-10-28T12:47:00.682Z,24.88
2022-10-28T12:50:08.993Z,26.02
2022-10-28T12:53:00.284Z,24.83
2022-10-28T12:59:11.244Z,26.88
2022-10-28T13:04:49.425Z,27.77
2022-10-28T13:07:57.809Z,26.45
2022-10-28T13:11:09.534Z,27.08
2022-10-28T13:16:59.194Z,27.45
2022-10-28T13:20:05.179Z,27.92
2022-10-28T13:22:52.150Z,28.05
2022-10-28T13:26:18.164Z,28.45
2022-10-28T13:31:51.879Z,30.33
2022-10-28T13:34:39.374Z,31.48
2022-10-28T13:37:10.395Z,33.78
2022-10-28T13:40:17.613Z,32.05
2022-10-28T13:45:59.375Z,34.42
2022-10-28T13:49:06.450Z,33.33
2022-10-28T13:51:36.835Z,32.78
2022-10-28T13:54:27.867Z,33.95
2022-10-28T13:57:31.252Z,34.40
2022-10-28T14:00:25.766Z,31.60
2022-10-28T14:05:56.524Z,32.72
2022-10-28T14:08:36.515Z,32.53
2022-10-28T14:14:22.058Z,31.60
2022-10-28T14:20:13.012Z,30.70
2022-10-28T14:22:53.131Z,30.88
2022-10-28T14:25:48.441Z,28.98
2022-10-28T14:28:34.458Z,30.05
2022-10-28T14:31:28.395Z,28.50
2022-10-28T14:33:59.372Z,28.10
2022-10-28T14:36:39.415Z,27.52
2022-10-28T14:39:33.434Z,27.33
2022-10-28T14:45:45.236Z,26.65
2022-10-28T14:48:54.043Z,25.83
2022-10-28T14:58:40.785Z,25.83
2022-10-28T15:01:34.471Z,25.17
2022-10-28T15:04:38.963Z,24.05
2022-10-28T15:07:17.303Z,23.88
2022-10-28T15:09:50.767Z,23.45
2022-10-28T15:12:26.064Z,22.25
2022-10-28T15:14:55.977Z,23.80
2022-10-28T15:17:27.449Z,24.88
2022-10-28T15:20:14.634Z,24.80
2022-10-28T15:22:56.696Z,25.10
2022-10-28T15:25:29.548Z,24.33
2022-10-28T15:28:06.148Z,25.05
2022-10-28T15:30:46.322Z,26.85
2022-10-28T15:33:31.783Z,25.13
2022-10-28T15:36:35.749Z,24.25
2022-10-28T15:39:11.220Z,25.95
2022-10-28T15:41:51.223Z,28.40
2022-10-28T15:44:29.043Z,28.00
2022-10-28T15:47:35.233Z,26.25
2022-10-28T15:50:38.709Z,25.83
2022-10-28T15:53:11.224Z,25.13
2022-10-28T15:56:06.789Z,27.42
2022-10-28T15:58:40.197Z,29.13
2022-10-28T16:01:39.712Z,27.15
2022-10-28T16:04:51.028Z,29.00
2022-10-28T16:07:30.585Z,27.27
2022-10-28T16:10:01.025Z,26.55
2022-10-28T16:12:28.340Z,26.00
2022-10-28T16:15:10.992Z,28.83
2022-10-28T16:18:02.139Z,27.60
2022-10-28T16:20:45.577Z,27.58
2022-10-28T16:24:10.021Z,27.23
2022-10-28T16:35:12.380Z,25.35
2022-10-28T16:50:30.975Z,27.85
2022-10-28T16:53:20.439Z,27.58
2022-10-28T16:56:57.467Z,27.75
2022-10-28T17:00:56.684Z,32.15
2022-10-28T17:05:15.941Z,29.45
2022-10-28T17:09:38.177Z,29.58
2022-10-28T17:12:16.174Z,29.38
2022-10-28T17:14:44.078Z,29.23
2022-10-28T17:17:11.510Z,27.70
2022-10-28T17:19:38.941Z,29.23
2022-10-28T17:22:09.399Z,28.88
2022-10-28T17:24:37.879Z,28.00
2022-10-28T17:27:05.916Z,29.45
2022-10-28T17:29:35.675Z,28.30
2022-10-28T17:32:08.779Z,28.52
2022-10-28T17:34:36.383Z,29.58
2022-10-28T17:37:03.965Z,29.48
2022-10-28T17:39:31.122Z,30.85
2022-10-28T17:42:02.332Z,30.15
2022-10-28T17:44:32.657Z,30.00
2022-10-28T17:46:59.820Z,31.23
2022-10-28T17:49:27.243Z,31.75
2022-10-28T17:51:54.309Z,30.83
2022-10-28T17:54:21.397Z,30.73
2022-10-28T18:04:27.613Z,31.80
2022-10-28T18:06:56.328Z,31.30
2022-10-28T18:09:24.465Z,32.03
2022-10-28T18:11:52.370Z,31.45
2022-10-28T18:14:20.437Z,31.70
2022-10-28T18:16:50.408Z,33.97
2022-10-28T18:19:18.084Z,32.28
2022-10-28T18:21:45.908Z,34.25
2022-10-28T18:24:13.089Z,32.65
2022-10-28T18:26:41.091Z,31.95
2022-10-28T18:29:10.189Z,33.10
2022-10-28T18:31:38.552Z,34.55
2022-10-28T18:34:05.772Z,33.17
2022-10-28T18:36:36.437Z,34.40
2022-10-28T18:39:05.675Z,34.47
2022-10-28T18:41:34.852Z,34.28
2022-10-28T18:44:04.582Z,34.13
2022-10-28T18:46:37.656Z,34.60
2022-10-28T18:49:08.346Z,36.42
2022-10-28T18:52:06.383Z,37.10
2022-10-28T18:56:27.687Z,35.13
2022-10-28T19:05:20.108Z,34.83
2022-10-28T19:07:47.447Z,34.58
2022-10-28T19:10:14.939Z,33.75
2022-10-28T19:12:45.993Z,34.65
2022-10-28T19:15:17.048Z,33.30
2022-10-28T19:17:44.452Z,34.88
2022-10-28T19:20:12.863Z,33.88
2022-10-28T19:22:40.767Z,46.97
2022-10-28T19:25:13.426Z,37.00
2022-10-28T19:27:53.977Z,42.80
2022-10-28T19:30:21.422Z,44.25
2022-10-28T19:32:59.957Z,41.35
2022-10-28T19:35:52.130Z,36.50
2022-10-28T19:38:22.131Z,37.08
2022-10-28T19:40:52.376Z,36.10
2022-10-28T19:43:25.794Z,37.00
2022-10-28T19:45:55.472Z,39.05
2022-10-28T19:48:27.212Z,38.53
2022-10-28T19:50:57.277Z,35.72
2022-10-28T19:53:29.162Z,36.00
2022-10-28T19:55:57.884Z,36.33
2022-10-28T19:58:25.252Z,37.03
2022-10-28T20:01:03.944Z,31.15
2022-10-28T20:03:34.544Z,30.73
2022-10-28T20:06:07.683Z,30.88
2022-10-28T20:08:43.191Z,29.10
2022-10-28T20:11:19.995Z,32.05
2022-10-28T20:14:05.802Z,33.03
2022-10-28T20:16:34.012Z,34.33
2022-10-28T20:19:04.263Z,35.47
2022-10-28T20:21:37.352Z,36.47
2022-10-28T20:24:07.616Z,35.45
2022-10-28T20:26:38.792Z,36.13
2022-10-28T20:29:10.074Z,35.10
2022-10-28T20:31:41.173Z,35.65
2022-10-28T20:34:08.715Z,34.58
2022-10-28T20:36:41.453Z,35.67
2022-10-28T20:39:18.333Z,35.00
2022-10-28T20:41:50.925Z,34.28
2022-10-28T20:44:20.426Z,32.92
2022-10-28T20:46:48.173Z,35.10
2022-10-28T20:49:15.772Z,36.53
2022-10-28T20:51:43.179Z,37.80
2022-10-28T20:54:10.691Z,36.60
2022-10-28T20:56:38.817Z,37.47
2022-10-28T20:59:06.498Z,37.70
2022-10-28T21:04:11.641Z,40.75
2022-10-28T21:06:50.617Z,38.10
2022-10-28T21:09:17.837Z,39.13
2022-10-28T21:11:45.975Z,39.78
2022-10-28T21:14:13.907Z,41.28
2022-10-28T21:16:43.738Z,44.70
2022-10-28T21:19:13.025Z,45.08
2022-10-28T21:21:40.530Z,43.80
2022-10-28T21:24:08.076Z,43.40
2022-10-28T21:26:44.305Z,41.30
2022-10-28T21:29:13.522Z,41.88
2022-10-28T21:31:40.603Z,44.13
2022-10-28T21:34:10.235Z,42.42
2022-10-28T21:36:37.506Z,39.50
2022-10-28T21:39:07.035Z,40.75
2022-10-28T21:41:34.778Z,39.38
2022-10-28T21:44:04.948Z,37.88
2022-10-28T21:46:34.741Z,36.63
2022-10-28T21:49:04.791Z,38.35
2022-10-28T21:51:32.938Z,38.00
2022-10-28T21:54:04.723Z,36.10
2022-10-28T21:56:32.062Z,35.28
2022-10-28T21:59:00.843Z,43.63
2022-10-28T22:01:28.054Z,38.75
2022-10-28T22:03:57.866Z,37.60
2022-10-28T22:06:25.198Z,40.30
2022-10-28T22:09:05.023Z,40.22
2022-10-28T22:11:32.300Z,39.70
2022-10-28T22:14:01.353Z,35.80
2022-10-28T22:16:30.698Z,39.15
2022-10-28T22:18:59.449Z,38.05
2022-10-28T22:21:30.335Z,39.90
2022-10-28T22:23:57.398Z,39.10
2022-10-28T22:26:26.537Z,39.28
2022-10-28T22:28:54.180Z,38.83
2022-10-28T22:31:43.024Z,32.97
2022-10-28T22:34:22.063Z,34.40
2022-10-28T22:36:49.211Z,34.67
2022-10-28T22:39:18.956Z,36.70
2022-10-28T22:41:50.161Z,36.75
2022-10-28T22:44:20.970Z,37.45
2022-10-28T22:46:48.150Z,38.33
2022-10-28T22:49:15.341Z,35.08
2022-10-28T22:51:50.450Z,35.00
2022-10-28T22:54:20.129Z,35.55
2022-10-28T22:56:49.812Z,34.30
2022-10-28T22:59:17.916Z,33.72
2022-10-28T23:01:48.989Z,31.02
2022-10-28T23:04:22.112Z,32.72
2022-10-28T23:06:49.387Z,32.70
2022-10-28T23:09:16.523Z,30.27
2022-10-28T23:11:44.612Z,26.55
2022-10-28T23:14:14.272Z,25.30
2022-10-28T23:16:41.440Z,26.17
2022-10-28T23:19:11.196Z,25.70
2022-10-28T23:21:38.372Z,26.88
2022-10-28T23:24:06.012Z,27.30
2022-10-28T23:26:33.109Z,34.40
2022-10-28T23:29:00.890Z,29.42
2022-10-28T23:31:28.576Z,29.58
2022-10-28T23:33:55.981Z,29.30
2022-10-28T23:36:23.243Z,29.15
2022-10-28T23:38:50.516Z,30.27
2022-10-28T23:41:19.364Z,30.15
2022-10-28T23:43:47.350Z,32.38
2022-10-28T23:46:14.648Z,33.47
2022-10-28T23:48:41.855Z,33.70
2022-10-28T23:51:08.959Z,31.40
2022-10-28T23:53:36.030Z,31.92
2022-10-28T23:56:03.462Z,33.90
2022-10-28T23:58:30.496Z,33.47
